WetterOnline ( https://www.wetteronline.at )

Wetter aktuell List auf Sylt

Aktuelles Wetter: List/Sylt (29m)

6-stündlich | Neueste Meldungen
Ortszeit Temperatur Wetter
Do, 25.07. 8:00 16.8° C wolkig
Do, 25.07. 2:00 15.1° C bewölkt
Mi, 24.07. 20:00 16.4° C leicht bewölkt
Mi, 24.07. 14:00 17.2° C bewölkt
Mi, 24.07. 8:00 16.2° C bewölkt
Mi, 24.07. 2:00 16.7° C leicht bewölkt
Di, 23.07. 20:00 18.7° C leicht bewölkt
Di, 23.07. 14:00 19.3° C bedeckt
Ortszeit Temperatur Wetter
Do, 25.07. 12:30 17.7° C wolkig
Do, 25.07. 12:20 17.7° C wolkig
Do, 25.07. 12:10 17.8° C bedeckt
Do, 25.07. 12:00 17.8° C wolkig
Do, 25.07. 11:50 17.8° C wolkig
Do, 25.07. 11:40 18.2° C bedeckt
Do, 25.07. 11:30 18.2° C bedeckt
Do, 25.07. 11:00 18.3° C bewölkt
Do, 25.07. 10:30 18.4° C wolkig
Do, 25.07. 10:00 17.6° C bewölkt
Do, 25.07. 9:30 16.9° C bedeckt
Ortszeit Relative Feuchte Sichtweite
Do, 25.07. 8:00 70% 45 km
Do, 25.07. 2:00 73% 50 km
Mi, 24.07. 20:00 66% 55 km
Mi, 24.07. 14:00 68% 45 km
Mi, 24.07. 8:00 76% 28 km
Mi, 24.07. 2:00 80% 30 km
Di, 23.07. 20:00 85% 35 km
Di, 23.07. 14:00 88% 22 km
Ortszeit Relative Feuchte Sichtweite
Do, 25.07. 12:30 71% >70 km
Do, 25.07. 12:20 71% -
Do, 25.07. 12:10 71% -
Do, 25.07. 12:00 72% 55 km
Do, 25.07. 11:50 72% -
Do, 25.07. 11:40 72% -
Do, 25.07. 11:30 65% >70 km
Do, 25.07. 11:00 64% >70 km
Do, 25.07. 10:30 63% 55 km
Do, 25.07. 10:00 67% 60 km
Do, 25.07. 9:30 69% 60 km
Ortszeit Niederschlagsmenge Niederschlagsart
Do, 25.07. 8:00 0.0 l/m2 in 12 Std. -
Do, 25.07. 2:00 0.0 l/m2 in 6 Std. -
Mi, 24.07. 20:00 0.1 l/m2 in 12 Std. Regen
Mi, 24.07. 14:00 0.0 l/m2 in 6 Std. -
Mi, 24.07. 8:00 0.0 l/m2 in 12 Std. -
Mi, 24.07. 2:00 0.0 l/m2 in 6 Std. -
Di, 23.07. 20:00 2 l/m2 in 12 Std. Sprühregen
Di, 23.07. 14:00 2 l/m2 in 6 Std. Regen
Ortszeit Niederschlagsmenge Niederschlagsart
Do, 25.07. 12:30 0.0 l/m2 in 30 Min -
Do, 25.07. 12:20 keine Meldung -
Do, 25.07. 12:10 keine Meldung -
Do, 25.07. 12:00 0.0 l/m2 in 1 Std. -
Do, 25.07. 11:50 keine Meldung -
Do, 25.07. 11:40 keine Meldung -
Do, 25.07. 11:30 0.0 l/m2 in 30 Min -
Do, 25.07. 11:00 0.0 l/m2 in 1 Std. -
Do, 25.07. 10:30 0.0 l/m2 in 30 Min -
Do, 25.07. 10:00 0.0 l/m2 in 1 Std. -
Do, 25.07. 9:30 0.0 l/m2 in 30 Min -
Ortszeit Stärke Spitze Richtung
km/h Bft. km/h Grad Sektor
Do, 25.07. 8:00 14 3 32 220° SW
Do, 25.07. 2:00 20 4 39 280° W
Mi, 24.07. 20:00 30 5 48 300° NW
Mi, 24.07. 14:00 36 5 54 310° NW
Mi, 24.07. 8:00 39 6 52 320° NW
Mi, 24.07. 2:00 33 5 46 320° NW
Di, 23.07. 20:00 26 4 37 310° NW
Di, 23.07. 14:00 25 4 36 250° W
Ortszeit Stärke Spitze Richtung
km/h Bft. km/h Grad Sektor
Do, 25.07. 12:30 30 5 39 200° S
Do, 25.07. 12:20 30 5 - 200° S
Do, 25.07. 12:10 30 5 - 190° S
Do, 25.07. 12:00 28 4 37 190° S
Do, 25.07. 11:50 28 4 - 190° S
Do, 25.07. 11:40 28 4 - 190° S
Do, 25.07. 11:30 26 4 35 190° S
Do, 25.07. 11:00 24 4 31 190° S
Do, 25.07. 10:30 18 3 29 180° S
Do, 25.07. 10:00 20 4 26 200° S
Do, 25.07. 9:30 18 3 25 210° SW
Ortszeit Untergrenze Bedeckung Gattung
total tief tief mittel hoch
Do, 25.07. 8:00 3900 m 6/8 6/8 - - -
Do, 25.07. 2:00 720 m 7/8 7/8 - - -
Mi, 24.07. 20:00 810 m 2/8 1/8 - - -
Mi, 24.07. 14:00 690 m 8/8 4/8 - - -
Mi, 24.07. 8:00 570 m 7/8 7/8 - - -
Mi, 24.07. 2:00 540 m 4/8 4/8 - - -
Di, 23.07. 20:00 240 m 3/8 3/8 - - -
Di, 23.07. 14:00 240 m 8/8 8/8 - - -
Ortszeit Bedeckungsgrad in Achtel und Wolkenuntergrenze
Do, 25.07. 12:30 1(660m) 8(3600m)
Do, 25.07. 12:20 1(660m) 8(3600m)
Do, 25.07. 12:10 8
Do, 25.07. 12:00 1(570m) 8(3900m) 8(7200m)
Do, 25.07. 11:50 1(570m) 8(3900m) 8(7200m)
Do, 25.07. 11:40 8
Do, 25.07. 11:30 8(3000m) 8(3900m)
Do, 25.07. 11:00 7(3000m) 8(7500m)
Do, 25.07. 10:30 5(3300m) 7(7500m)
Do, 25.07. 10:00 6(3300m) 7(7500m) 8(8700m)
Do, 25.07. 9:30 7(3300m) 8(4200m)
Ortszeit Luftdruck NN (hPa) Tendenz (hPa in 3 Std.)
Do, 25.07. 8:00 1015 - 0,8
Do, 25.07. 2:00 1017 - 0,2
Mi, 24.07. 20:00 1017 - 0,6
Mi, 24.07. 14:00 1018 + 0,7
Mi, 24.07. 8:00 1016 + 0,5
Mi, 24.07. 2:00 1016 + 0,9
Di, 23.07. 20:00 1014 + 0,9
Di, 23.07. 14:00 1013 + 0,1
Ortszeit Luftdruck NN (hPa) Tendenz (hPa in 3 Std.)
Do, 25.07. 12:30 1014 - 1,1
Do, 25.07. 12:20 1014 keine Meldung
Do, 25.07. 12:10 1014 keine Meldung
Do, 25.07. 12:00 1014 - 1,0
Do, 25.07. 11:50 1014 keine Meldung
Do, 25.07. 11:40 1014 keine Meldung
Do, 25.07. 11:30 1014 - 1,0
Do, 25.07. 11:00 1014 - 0,9
Do, 25.07. 10:30 1014 - 1,0
Do, 25.07. 10:00 1015 - 0,7
Do, 25.07. 9:30 1015 - 0,4
Ortszeit Schneehöhe (cm)
Do, 25.07. 8:00 0
Do, 25.07. 2:00 0
Mi, 24.07. 20:00 0
Mi, 24.07. 14:00 0
Mi, 24.07. 8:00 0
Mi, 24.07. 2:00 0
Di, 23.07. 20:00 0
Di, 23.07. 14:00 0
Ortszeit Schneehöhe (cm)
Do, 25.07. 12:30 0
Do, 25.07. 12:20 0
Do, 25.07. 12:10 -
Do, 25.07. 12:00 0
Do, 25.07. 11:50 0
Do, 25.07. 11:40 -
Do, 25.07. 11:30 0
Do, 25.07. 11:00 0
Do, 25.07. 10:30 0
Do, 25.07. 10:00 0
Do, 25.07. 9:30 0
Link zu dieser Seite / Seite empfehlen

Das Wetter in ...